createdAt,value
2018-08-22T00:00:40.220Z,7.45
2018-08-22T00:03:08.594Z,6.80
2018-08-22T00:05:36.853Z,5.92
2018-08-22T00:08:05.480Z,4.87
2018-08-22T00:10:33.751Z,5.25
2018-08-22T00:13:02.038Z,6.30
2018-08-22T00:15:30.358Z,2.65
2018-08-22T00:17:58.646Z,14.45
2018-08-22T00:20:26.944Z,3.10
2018-08-22T00:22:55.320Z,3.65
2018-08-22T00:25:24.500Z,3.45
2018-08-22T00:27:52.719Z,2.70
2018-08-22T00:30:21.013Z,2.20
2018-08-22T00:32:49.287Z,4.25
2018-08-22T00:35:17.602Z,4.72
2018-08-22T00:37:45.912Z,7.35
2018-08-22T00:40:14.196Z,4.10
2018-08-22T00:42:42.492Z,4.37
2018-08-22T00:45:10.803Z,7.33
2018-08-22T00:47:39.090Z,1.87
2018-08-22T00:50:07.428Z,4.50
2018-08-22T00:52:35.788Z,3.00
2018-08-22T00:55:04.079Z,3.25
2018-08-22T00:57:32.431Z,5.25
2018-08-22T01:00:00.764Z,3.67
2018-08-22T01:02:29.090Z,2.87
2018-08-22T01:04:57.366Z,3.12
2018-08-22T01:07:25.688Z,5.78
2018-08-22T01:09:53.978Z,5.45
2018-08-22T01:12:22.230Z,8.63
2018-08-22T01:14:50.536Z,5.20
2018-08-22T01:17:18.892Z,7.42
2018-08-22T01:19:47.179Z,7.58
2018-08-22T01:22:15.519Z,3.47
2018-08-22T01:24:43.874Z,3.77
2018-08-22T01:27:16.375Z,6.67
2018-08-22T01:29:44.691Z,9.75
2018-08-22T01:32:12.967Z,3.67
2018-08-22T01:34:41.285Z,3.35
2018-08-22T01:37:09.890Z,4.47
2018-08-22T01:39:38.578Z,2.40
2018-08-22T01:42:06.912Z,3.98
2018-08-22T01:44:35.226Z,10.00
2018-08-22T01:47:03.525Z,4.70
2018-08-22T01:49:31.814Z,2.80
2018-08-22T01:52:00.063Z,3.00
2018-08-22T01:54:28.330Z,2.65
2018-08-22T01:56:56.649Z,3.10
2018-08-22T01:59:24.923Z,3.25
2018-08-22T02:01:53.208Z,2.20
2018-08-22T02:04:21.803Z,2.00
2018-08-22T02:06:50.189Z,3.00
2018-08-22T02:09:18.500Z,7.55
2018-08-22T02:11:46.816Z,9.45
2018-08-22T02:14:15.107Z,4.03
2018-08-22T02:16:43.425Z,5.15
2018-08-22T02:19:13.054Z,5.90
2018-08-22T02:21:41.375Z,5.40
2018-08-22T02:24:09.653Z,3.95
2018-08-22T02:26:37.916Z,4.62
2018-08-22T02:29:06.248Z,7.80
2018-08-22T02:31:34.537Z,4.12
2018-08-22T02:34:02.806Z,5.10
2018-08-22T02:36:31.131Z,6.65
2018-08-22T02:38:59.478Z,7.08
2018-08-22T02:41:27.793Z,4.83
2018-08-22T02:43:56.194Z,6.15
2018-08-22T02:46:24.457Z,7.50
2018-08-22T02:48:56.773Z,3.12
2018-08-22T02:51:25.822Z,2.98
2018-08-22T02:53:54.089Z,5.83
2018-08-22T02:56:22.704Z,3.15
2018-08-22T02:58:51.395Z,8.48
2018-08-22T03:01:19.725Z,6.28
2018-08-22T03:03:48.028Z,3.55
2018-08-22T03:06:16.307Z,10.08
2018-08-22T03:08:44.600Z,5.67
2018-08-22T03:11:12.998Z,6.30
2018-08-22T03:13:41.273Z,4.90
2018-08-22T03:16:09.579Z,7.92
2018-08-22T03:18:37.883Z,4.78
2018-08-22T03:21:06.200Z,4.92
2018-08-22T03:23:34.493Z,4.75
2018-08-22T03:26:02.806Z,5.08
2018-08-22T03:28:31.112Z,4.25
2018-08-22T03:30:59.560Z,3.67
2018-08-22T03:33:27.874Z,7.50
2018-08-22T03:35:56.191Z,4.65
2018-08-22T03:38:24.564Z,5.80
2018-08-22T03:40:52.850Z,4.12
2018-08-22T03:43:21.191Z,3.50
2018-08-22T03:45:49.609Z,9.70
2018-08-22T03:48:18.251Z,5.28
2018-08-22T03:50:46.550Z,5.10
2018-08-22T03:53:14.862Z,3.30
2018-08-22T03:55:43.146Z,5.17
2018-08-22T03:58:11.628Z,4.90
2018-08-22T04:00:39.939Z,4.17
2018-08-22T04:03:08.258Z,16.62
2018-08-22T04:05:36.543Z,4.90
2018-08-22T04:08:04.867Z,6.35
2018-08-22T04:10:33.157Z,4.47
2018-08-22T04:13:01.485Z,4.17
2018-08-22T04:15:29.794Z,4.15
2018-08-22T04:17:58.077Z,5.40
2018-08-22T04:20:26.341Z,4.58
2018-08-22T04:22:54.668Z,5.17
2018-08-22T04:25:22.919Z,7.17
2018-08-22T04:27:51.221Z,10.65
2018-08-22T04:30:19.533Z,5.97
2018-08-22T04:32:48.027Z,5.08
2018-08-22T04:35:16.347Z,3.87
2018-08-22T04:37:44.624Z,5.33
2018-08-22T04:40:12.943Z,4.62
2018-08-22T04:42:41.255Z,4.85
2018-08-22T04:45:09.580Z,5.72
2018-08-22T04:47:37.906Z,5.67
2018-08-22T04:50:06.238Z,4.60
2018-08-22T04:52:34.507Z,8.53
2018-08-22T04:55:02.797Z,6.55
2018-08-22T04:57:31.068Z,4.95
2018-08-22T04:59:59.348Z,5.90
2018-08-22T05:02:27.617Z,7.15
2018-08-22T05:04:55.916Z,4.20
2018-08-22T05:07:24.183Z,4.35
2018-08-22T05:09:52.467Z,7.45
2018-08-22T05:12:20.840Z,5.28
2018-08-22T05:14:49.284Z,6.72
2018-08-22T05:17:17.580Z,4.42
2018-08-22T05:19:45.891Z,6.35
2018-08-22T05:22:14.292Z,6.45
2018-08-22T05:24:42.651Z,8.35
2018-08-22T05:27:11.005Z,4.30
2018-08-22T05:29:39.318Z,7.58
2018-08-22T05:32:07.600Z,4.58
2018-08-22T05:34:35.867Z,4.37
2018-08-22T05:37:04.213Z,4.55
2018-08-22T05:39:32.524Z,21.55
2018-08-22T05:42:00.793Z,9.43
2018-08-22T05:44:29.067Z,6.00
2018-08-22T05:46:57.454Z,6.85
2018-08-22T05:49:25.818Z,7.22
2018-08-22T05:51:54.143Z,6.25
2018-08-22T05:54:22.581Z,10.03
2018-08-22T05:56:50.901Z,5.65
2018-08-22T05:59:19.204Z,3.77
2018-08-22T06:01:47.543Z,8.03
2018-08-22T06:04:15.859Z,5.53
2018-08-22T06:06:44.223Z,7.65
2018-08-22T06:09:13.382Z,9.70
2018-08-22T06:11:42.973Z,4.78
2018-08-22T06:14:11.324Z,5.35
2018-08-22T06:16:39.645Z,9.43
2018-08-22T06:19:07.989Z,14.07
2018-08-22T06:21:36.574Z,9.10
2018-08-22T06:24:04.865Z,4.25
2018-08-22T06:26:33.161Z,9.43
2018-08-22T06:29:01.626Z,5.72
2018-08-22T06:31:29.922Z,7.70
2018-08-22T06:33:58.208Z,6.37
2018-08-22T06:36:26.695Z,8.63
2018-08-22T06:38:55.063Z,13.95
2018-08-22T06:41:23.857Z,4.47
2018-08-22T06:43:52.167Z,5.53
2018-08-22T06:46:20.451Z,6.95
2018-08-22T06:48:48.724Z,8.93
2018-08-22T06:51:17.045Z,6.40
2018-08-22T06:53:45.319Z,8.43
2018-08-22T06:56:13.608Z,10.50
2018-08-22T06:58:41.925Z,13.95
2018-08-22T07:01:10.200Z,11.57
2018-08-22T07:03:38.479Z,8.05
2018-08-22T07:06:06.769Z,14.30
2018-08-22T07:08:35.120Z,6.85
2018-08-22T07:11:03.400Z,9.40
2018-08-22T07:13:31.726Z,7.15
2018-08-22T07:16:00.044Z,4.87
2018-08-22T07:18:28.360Z,6.12
2018-08-22T07:20:56.712Z,10.95
2018-08-22T07:23:24.961Z,7.12
2018-08-22T07:25:53.263Z,6.50
2018-08-22T07:28:21.548Z,13.43
2018-08-22T07:30:49.805Z,9.30
2018-08-22T07:33:18.126Z,7.62
2018-08-22T07:35:46.473Z,9.68
2018-08-22T07:38:14.731Z,9.03
2018-08-22T07:40:43.034Z,9.68
2018-08-22T07:43:11.312Z,6.53
2018-08-22T07:45:39.679Z,7.40
2018-08-22T07:48:08.027Z,17.87
2018-08-22T07:50:36.391Z,8.05
2018-08-22T07:53:06.127Z,7.50
2018-08-22T07:55:38.683Z,8.58
2018-08-22T07:58:07.128Z,14.55
2018-08-22T08:00:59.393Z,5.83
2018-08-22T08:07:12.756Z,11.97
2018-08-22T08:09:41.345Z,7.33
2018-08-22T08:12:09.686Z,9.48
2018-08-22T08:14:38.012Z,9.20
2018-08-22T08:17:06.496Z,6.80
2018-08-22T08:19:34.728Z,15.13
2018-08-22T08:22:02.958Z,8.70
2018-08-22T08:24:31.286Z,9.60
2018-08-22T08:26:59.572Z,9.00
2018-08-22T08:29:27.853Z,5.42
2018-08-22T08:31:56.146Z,6.87
2018-08-22T08:34:24.431Z,14.28
2018-08-22T08:36:52.758Z,19.87
2018-08-22T08:39:21.001Z,5.53
2018-08-22T08:41:49.389Z,9.30
2018-08-22T08:44:17.684Z,7.30
2018-08-22T08:46:46.007Z,20.72
2018-08-22T08:49:14.624Z,29.70
2018-08-22T08:51:54.277Z,7.33
2018-08-22T08:54:22.893Z,4.50
2018-08-22T08:56:51.237Z,8.70
2018-08-22T08:59:19.541Z,8.38
2018-08-22T09:01:47.928Z,7.05
2018-08-22T09:04:17.063Z,10.93
2018-08-22T09:06:45.340Z,5.15
2018-08-22T09:09:13.632Z,5.83
2018-08-22T09:11:49.256Z,14.05
2018-08-22T09:14:17.566Z,8.23
2018-08-22T09:16:46.019Z,3.67
2018-08-22T09:19:14.320Z,15.32
2018-08-22T09:21:42.601Z,6.28
2018-08-22T09:24:11.293Z,7.50
2018-08-22T09:26:39.464Z,6.70
2018-08-22T09:29:07.843Z,3.10
2018-08-22T09:31:36.214Z,4.75
2018-08-22T09:34:04.456Z,4.75
2018-08-22T09:36:32.957Z,9.48
2018-08-22T09:39:01.375Z,6.47
2018-08-22T09:41:29.657Z,5.53
2018-08-22T09:44:07.644Z,7.45
2018-08-22T09:46:36.246Z,5.92
2018-08-22T09:49:04.519Z,6.25
2018-08-22T09:51:32.855Z,10.35
2018-08-22T09:54:01.142Z,5.03
2018-08-22T09:56:29.715Z,7.05
2018-08-22T09:58:58.077Z,6.72
2018-08-22T10:01:31.914Z,3.90
2018-08-22T10:04:01.328Z,7.30
2018-08-22T10:06:38.614Z,5.45
2018-08-22T10:09:08.649Z,8.33
2018-08-22T10:11:37.110Z,6.17
2018-08-22T10:14:05.489Z,7.95
2018-08-22T10:16:34.048Z,12.73
2018-08-22T10:19:02.413Z,9.28
2018-08-22T10:21:30.769Z,4.67
2018-08-22T10:23:59.141Z,6.10
2018-08-22T10:26:27.637Z,12.50
2018-08-22T10:28:55.969Z,6.17
2018-08-22T10:31:24.991Z,10.65
2018-08-22T10:33:53.651Z,6.05
2018-08-22T10:36:21.973Z,6.33
2018-08-22T10:38:50.334Z,7.50
2018-08-22T10:41:18.875Z,10.60
2018-08-22T10:43:47.124Z,5.22
2018-08-22T10:46:15.431Z,8.53
2018-08-22T10:48:43.865Z,5.87
2018-08-22T10:51:12.124Z,5.40
2018-08-22T10:53:40.414Z,10.95
2018-08-22T10:56:08.796Z,29.07
2018-08-22T10:58:37.122Z,5.08
2018-08-22T11:01:05.494Z,34.33
2018-08-22T11:03:33.862Z,18.07
2018-08-22T11:06:02.154Z,49.98
2018-08-22T11:08:30.633Z,17.57
2018-08-22T11:10:59.217Z,17.82
2018-08-22T11:13:27.606Z,8.83
2018-08-22T11:15:56.082Z,12.63
2018-08-22T11:18:24.284Z,15.13
2018-08-22T11:20:52.853Z,14.35
2018-08-22T11:23:33.418Z,13.22
2018-08-22T11:26:13.715Z,10.48
2018-08-22T11:28:53.300Z,8.10
2018-08-22T11:31:33.086Z,8.75
2018-08-22T11:34:13.421Z,6.87
2018-08-22T11:36:43.911Z,12.73
2018-08-22T11:39:12.281Z,8.78
2018-08-22T11:41:40.604Z,6.25
2018-08-22T11:44:08.884Z,9.80
2018-08-22T11:46:52.356Z,5.20
2018-08-22T11:49:21.025Z,7.95
2018-08-22T11:51:49.532Z,4.53
2018-08-22T11:54:17.948Z,4.70
2018-08-22T11:56:46.335Z,5.22
2018-08-22T11:59:14.716Z,8.70
2018-08-22T12:01:43.616Z,7.53
2018-08-22T12:04:11.908Z,6.03
2018-08-22T12:06:40.352Z,6.33
2018-08-22T12:09:10.487Z,8.73
2018-08-22T12:11:38.778Z,13.30
2018-08-22T12:14:07.173Z,5.25
2018-08-22T12:16:35.528Z,5.03
2018-08-22T12:19:03.966Z,6.72
2018-08-22T12:21:32.252Z,7.90
2018-08-22T12:24:00.544Z,4.42
2018-08-22T12:26:28.854Z,5.30
2018-08-22T12:28:57.169Z,6.47
2018-08-22T12:31:25.616Z,8.43
2018-08-22T12:33:54.956Z,8.50
2018-08-22T12:36:23.283Z,10.65
2018-08-22T12:38:51.719Z,6.70
2018-08-22T12:41:20.085Z,9.43
2018-08-22T12:43:48.374Z,9.85
2018-08-22T12:46:16.691Z,6.05
2018-08-22T12:48:45.052Z,6.75
2018-08-22T12:51:13.337Z,5.08
2018-08-22T12:53:41.610Z,9.53
2018-08-22T12:56:09.994Z,10.60
2018-08-22T12:58:38.296Z,5.53
2018-08-22T13:01:06.956Z,7.40
2018-08-22T13:03:35.171Z,8.43
2018-08-22T13:06:03.491Z,5.65
2018-08-22T13:08:31.762Z,8.33
2018-08-22T13:11:00.147Z,8.20
2018-08-22T13:13:28.445Z,6.92
2018-08-22T13:15:56.801Z,7.37
2018-08-22T13:18:25.157Z,6.08
2018-08-22T13:20:53.476Z,4.67
2018-08-22T13:23:21.795Z,6.05
2018-08-22T13:25:50.065Z,5.45
2018-08-22T13:28:18.339Z,7.92
2018-08-22T13:30:46.625Z,6.60
2018-08-22T13:33:15.099Z,5.83
2018-08-22T13:35:43.386Z,6.05
2018-08-22T13:38:11.735Z,4.95
2018-08-22T13:40:40.047Z,8.03
2018-08-22T13:43:08.309Z,4.00
2018-08-22T13:45:36.636Z,4.83
2018-08-22T13:48:04.921Z,5.60
2018-08-22T13:50:33.280Z,8.35
2018-08-22T13:53:01.722Z,6.72
2018-08-22T13:55:29.976Z,7.95
2018-08-22T13:57:58.306Z,10.00
2018-08-22T14:00:26.572Z,10.23
2018-08-22T14:02:55.076Z,7.83
2018-08-22T14:05:23.490Z,6.05
2018-08-22T14:07:51.790Z,9.38
2018-08-22T14:10:20.076Z,7.78
2018-08-22T14:12:48.365Z,7.58
2018-08-22T14:15:16.964Z,7.35
2018-08-22T14:17:45.161Z,6.85
2018-08-22T14:20:13.567Z,10.45
2018-08-22T14:22:42.037Z,7.85
2018-08-22T14:25:10.536Z,5.47
2018-08-22T14:27:38.949Z,6.62
2018-08-22T14:30:07.551Z,9.58
2018-08-22T14:32:35.928Z,7.75
2018-08-22T14:35:04.203Z,7.58
2018-08-22T14:37:32.532Z,5.72
2018-08-22T14:40:00.858Z,9.45
2018-08-22T14:42:29.155Z,6.03
2018-08-22T14:44:57.540Z,7.45
2018-08-22T14:47:25.758Z,7.10
2018-08-22T14:49:54.063Z,4.87
2018-08-22T14:52:22.353Z,7.62
2018-08-22T14:54:50.640Z,6.72
2018-08-22T14:59:53.607Z,8.48
2018-08-22T15:02:22.025Z,6.28
2018-08-22T15:04:50.316Z,9.03
2018-08-22T15:07:18.597Z,7.50
2018-08-22T15:09:46.984Z,12.58
2018-08-22T15:12:15.501Z,8.38
2018-08-22T15:14:43.801Z,11.15
2018-08-22T15:17:12.218Z,6.25
2018-08-22T15:19:40.501Z,7.83
2018-08-22T15:22:08.958Z,8.50
2018-08-22T15:24:37.277Z,7.92
2018-08-22T15:27:05.664Z,9.28
2018-08-22T15:29:33.986Z,7.83
2018-08-22T15:32:02.449Z,6.72
2018-08-22T15:34:42.209Z,14.90
2018-08-22T15:37:10.557Z,9.10
2018-08-22T15:39:38.887Z,11.00
2018-08-22T15:45:53.980Z,9.70
2018-08-22T15:48:22.272Z,11.45
2018-08-22T15:50:51.036Z,9.40
2018-08-22T15:53:19.292Z,7.70
2018-08-22T15:55:47.592Z,7.80
2018-08-22T15:58:15.891Z,7.40
2018-08-22T16:00:51.573Z,7.10
2018-08-22T16:03:20.242Z,9.03
2018-08-22T16:05:49.466Z,9.68
2018-08-22T16:08:20.328Z,12.55
2018-08-22T16:10:48.560Z,14.18
2018-08-22T16:13:35.536Z,11.90
2018-08-22T16:16:11.289Z,14.15
2018-08-22T16:18:39.635Z,9.65
2018-08-22T16:21:07.902Z,14.20
2018-08-22T16:23:36.221Z,13.55
2018-08-22T16:26:05.439Z,9.00
2018-08-22T16:28:46.640Z,13.05
2018-08-22T16:31:15.037Z,11.45
2018-08-22T16:33:43.230Z,11.15
2018-08-22T16:36:15.797Z,14.23
2018-08-22T16:38:44.078Z,10.80
2018-08-22T16:41:12.386Z,19.95
2018-08-22T16:43:43.064Z,19.90
2018-08-22T16:46:13.467Z,12.25
2018-08-22T16:48:43.150Z,10.20
2018-08-22T16:51:11.432Z,10.80
2018-08-22T16:53:39.794Z,7.40
2018-08-22T16:56:08.057Z,9.13
2018-08-22T16:58:36.344Z,15.32
2018-08-22T17:01:04.787Z,10.05
2018-08-22T17:03:33.280Z,12.53
2018-08-22T17:06:05.797Z,8.93
2018-08-22T17:08:34.304Z,7.83
2018-08-22T17:11:04.020Z,9.80
2018-08-22T17:13:41.403Z,13.35
2018-08-22T17:16:09.730Z,8.18
2018-08-22T17:18:38.171Z,14.85
2018-08-22T17:21:06.596Z,10.88
2018-08-22T17:23:34.902Z,11.03
2018-08-22T17:26:03.191Z,11.50
2018-08-22T17:28:37.678Z,12.63
2018-08-22T17:31:06.207Z,11.50
2018-08-22T17:33:53.408Z,9.90
2018-08-22T17:36:22.004Z,12.00
2018-08-22T17:38:51.806Z,14.30
2018-08-22T17:41:23.348Z,20.70
2018-08-22T17:44:09.140Z,14.90
2018-08-22T17:46:38.744Z,10.48
2018-08-22T17:49:07.010Z,15.45
2018-08-22T17:51:44.097Z,12.75
2018-08-22T17:54:12.409Z,13.60
2018-08-22T17:56:40.964Z,15.83
2018-08-22T17:59:09.291Z,11.55
2018-08-22T18:01:37.584Z,10.28
2018-08-22T18:04:05.903Z,18.45
2018-08-22T18:06:34.192Z,12.75
2018-08-22T18:09:05.231Z,10.70
2018-08-22T18:11:33.503Z,13.22
2018-08-22T18:14:01.792Z,18.12
2018-08-22T18:16:30.092Z,12.25
2018-08-22T18:18:58.542Z,21.90
2018-08-22T18:21:31.734Z,17.62
2018-08-22T18:24:00.021Z,14.03
2018-08-22T18:26:28.371Z,15.18
2018-08-22T18:28:56.679Z,22.27
2018-08-22T18:31:25.063Z,13.40
2018-08-22T18:34:01.702Z,16.42
2018-08-22T18:36:31.000Z,17.27
2018-08-22T18:39:07.637Z,15.70
2018-08-22T18:41:36.203Z,12.20
2018-08-22T18:44:04.544Z,11.55
2018-08-22T18:46:32.842Z,11.53
2018-08-22T18:49:02.416Z,14.30
2018-08-22T18:51:30.789Z,14.58
2018-08-22T18:53:59.396Z,15.95
2018-08-22T18:56:27.647Z,18.32
2018-08-22T18:58:56.200Z,13.65
2018-08-22T19:01:24.601Z,13.53
2018-08-22T19:03:55.574Z,13.83
2018-08-22T19:06:24.048Z,19.00
2018-08-22T19:08:52.326Z,20.62
2018-08-22T19:11:20.651Z,12.90
2018-08-22T19:13:48.991Z,14.68
2018-08-22T19:16:17.354Z,12.73
2018-08-22T19:18:45.680Z,11.05
2018-08-22T19:21:13.922Z,17.23
2018-08-22T19:23:43.072Z,18.27
2018-08-22T19:26:11.347Z,13.80
2018-08-22T19:28:54.242Z,15.95
2018-08-22T19:31:22.537Z,18.50
2018-08-22T19:33:50.818Z,23.67
2018-08-22T19:36:19.061Z,13.40
2018-08-22T19:38:47.455Z,13.62
2018-08-22T19:41:24.347Z,13.65
2018-08-22T19:43:52.795Z,13.83
2018-08-22T19:46:21.324Z,14.85
2018-08-22T19:48:49.708Z,13.90
2018-08-22T19:51:18.044Z,16.60
2018-08-22T19:54:04.539Z,15.95
2018-08-22T19:56:33.130Z,18.50
2018-08-22T19:59:02.687Z,15.65
2018-08-22T20:01:32.657Z,15.38
2018-08-22T20:04:01.012Z,19.87
2018-08-22T20:06:29.280Z,24.65
2018-08-22T20:08:58.732Z,22.15
2018-08-22T20:11:27.440Z,19.87
2018-08-22T20:14:00.913Z,16.75
2018-08-22T20:16:29.341Z,15.72
2018-08-22T20:18:59.748Z,19.48
2018-08-22T20:21:31.820Z,16.05
2018-08-22T20:24:00.750Z,21.27
2018-08-22T20:26:29.460Z,14.10
2018-08-22T20:28:58.932Z,22.42
2018-08-22T20:31:27.213Z,23.27
2018-08-22T20:34:16.304Z,16.25
2018-08-22T20:36:47.413Z,19.73
2018-08-22T20:39:15.964Z,22.05
2018-08-22T20:41:44.670Z,19.07
2018-08-22T20:44:16.504Z,23.05
2018-08-22T20:46:45.939Z,25.95
2018-08-22T20:49:15.383Z,22.32
2018-08-22T20:51:43.660Z,24.98
2018-08-22T20:54:13.433Z,24.85
2018-08-22T20:56:48.149Z,22.82
2018-08-22T20:59:17.396Z,24.15
2018-08-22T21:01:47.918Z,30.65
2018-08-22T21:04:16.391Z,22.75
2018-08-22T21:06:44.756Z,25.37
2018-08-22T21:09:13.362Z,23.60
2018-08-22T21:11:42.350Z,27.45
2018-08-22T21:14:10.634Z,27.37
2018-08-22T21:16:40.431Z,26.52
2018-08-22T21:19:08.746Z,26.33
2018-08-22T21:21:37.086Z,29.40
2018-08-22T21:24:05.429Z,28.90
2018-08-22T21:26:40.134Z,31.07
2018-08-22T21:29:08.418Z,28.60
2018-08-22T21:31:37.212Z,25.88
2018-08-22T21:34:22.868Z,29.85
2018-08-22T21:36:51.143Z,36.63
2018-08-22T21:39:26.846Z,30.10
2018-08-22T21:41:55.312Z,39.90
2018-08-22T21:44:24.044Z,32.25
2018-08-22T21:46:58.512Z,33.53
2018-08-22T21:49:26.916Z,36.80
2018-08-22T21:52:00.770Z,35.30
2018-08-22T21:54:29.191Z,38.63
2018-08-22T21:56:57.437Z,39.25
2018-08-22T21:59:25.768Z,38.55
2018-08-22T22:01:59.447Z,35.43
2018-08-22T22:04:33.331Z,40.50
2018-08-22T22:07:01.994Z,40.85
2018-08-22T22:09:30.287Z,41.13
2018-08-22T22:12:00.504Z,36.93
2018-08-22T22:14:33.979Z,41.23
2018-08-22T22:17:03.181Z,41.23
2018-08-22T22:19:32.581Z,39.83
2018-08-22T22:22:01.562Z,39.42
2018-08-22T22:24:29.862Z,39.42
2018-08-22T22:26:58.683Z,42.27
2018-08-22T22:29:29.517Z,37.33
2018-08-22T22:31:57.808Z,41.83
2018-08-22T22:34:26.147Z,37.45
2018-08-22T22:36:54.448Z,40.90
2018-08-22T22:39:36.210Z,44.18
2018-08-22T22:42:11.449Z,45.50
2018-08-22T22:44:40.455Z,50.90
2018-08-22T22:47:12.965Z,43.70
2018-08-22T22:49:41.231Z,52.83
2018-08-22T22:52:32.656Z,48.98
2018-08-22T22:55:02.346Z,45.28
2018-08-22T22:57:32.979Z,40.10
2018-08-22T23:00:02.036Z,47.70
2018-08-22T23:02:30.976Z,43.87
2018-08-22T23:04:59.996Z,47.15
2018-08-22T23:07:30.879Z,45.52
2018-08-22T23:10:00.504Z,47.70
2018-08-22T23:12:47.237Z,47.33
2018-08-22T23:15:23.713Z,50.15
2018-08-22T23:17:53.596Z,51.08
2018-08-22T23:20:33.584Z,47.93
2018-08-22T23:23:01.879Z,52.60
2018-08-22T23:25:30.589Z,50.17
2018-08-22T23:27:58.882Z,51.35
2018-08-22T23:30:32.212Z,49.13
2018-08-22T23:33:00.506Z,59.33
2018-08-22T23:35:30.953Z,48.25
2018-08-22T23:38:00.268Z,48.20
2018-08-22T23:40:29.756Z,49.53
2018-08-22T23:42:58.067Z,46.83
2018-08-22T23:45:26.346Z,49.75
2018-08-22T23:47:54.627Z,48.00
2018-08-22T23:50:56.178Z,53.83
2018-08-22T23:53:26.955Z,47.75
2018-08-22T23:56:10.012Z,60.00
2018-08-22T23:58:39.030Z,47.93
